Time,TemperatureF,DewpointF,PressureIn,WindDirection,WindDirectionDegrees,WindSpeedMPH,WindSpeedGustMPH,Humidity,HourlyPrecipIn,Conditions,Clouds,dailyrainin,SoftwareType,DateUTC
2013-06-19 00:01:00,62.0,51.0,30.02,ENE,75,0.0,2.0,66,0.00,,,0.00,,2013-06-19 04:01:00,
2013-06-19 00:11:00,61.0,50.0,30.02,ENE,75,0.0,2.0,67,0.00,,,0.00,,2013-06-19 04:11:00,
2013-06-19 00:22:00,61.0,50.0,30.02,ENE,78,0.0,4.0,67,0.00,,,0.00,,2013-06-19 04:22:00,
2013-06-19 00:32:00,61.0,50.0,30.02,ENE,78,0.0,4.0,67,0.00,,,0.00,,2013-06-19 04:32:00,
2013-06-19 00:42:00,61.0,50.0,30.02,ENE,78,0.0,4.0,67,0.00,,,0.00,,2013-06-19 04:42:00,
2013-06-19 00:53:00,60.0,49.0,30.02,ENE,71,0.0,2.0,67,0.00,,,0.00,,2013-06-19 04:53:00,
2013-06-19 01:01:00,60.0,49.0,30.02,ENE,71,0.0,1.0,67,0.00,,,0.00,,2013-06-19 05:01:00,
2013-06-19 01:11:00,60.0,49.0,30.03,ENE,72,0.0,2.0,67,0.00,,,0.00,,2013-06-19 05:11:00,
2013-06-19 01:23:00,59.0,48.0,30.03,ENE,72,0.0,0.0,68,0.00,,,0.00,,2013-06-19 05:23:00,
2013-06-19 01:32:00,59.0,49.0,30.03,ENE,72,0.0,0.0,69,0.00,,,0.00,,2013-06-19 05:32:00,
2013-06-19 01:42:00,58.0,48.0,30.04,ENE,72,0.0,0.0,69,0.00,,,0.00,,2013-06-19 05:42:00,
2013-06-19 01:52:00,58.0,48.0,30.04,ENE,72,0.0,0.0,70,0.00,,,0.00,,2013-06-19 05:52:00,
2013-06-19 02:02:00,57.0,48.0,30.04,ENE,72,0.0,0.0,71,0.00,,,0.00,,2013-06-19 06:02:00,
2013-06-19 02:11:00,57.0,48.0,30.04,ENE,72,0.0,0.0,72,0.00,,,0.00,,2013-06-19 06:11:00,
2013-06-19 02:22:00,57.0,48.0,30.04,ENE,72,0.0,0.0,72,0.00,,,0.00,,2013-06-19 06:22:00,
2013-06-19 02:34:00,57.0,48.0,30.04,ENE,72,0.0,0.0,72,0.00,,,0.00,,2013-06-19 06:34:00,
2013-06-19 02:42:00,56.0,47.0,30.04,ENE,72,0.0,0.0,72,0.00,,,0.00,,2013-06-19 06:42:00,
2013-06-19 02:52:00,56.0,47.0,30.04,ENE,72,0.0,0.0,72,0.00,,,0.00,,2013-06-19 06:52:00,
2013-06-19 03:01:00,56.0,47.0,30.04,ENE,72,0.0,0.0,71,0.00,,,0.00,,2013-06-19 07:01:00,
2013-06-19 03:11:00,56.0,47.0,30.05,ENE,72,0.0,0.0,73,0.00,,,0.00,,2013-06-19 07:11:00,
2013-06-19 03:22:00,55.0,47.0,30.06,ENE,72,0.0,0.0,75,0.00,,,0.00,,2013-06-19 07:22:00,
2013-06-19 03:33:00,55.0,48.0,30.06,ENE,72,0.0,0.0,76,0.00,,,0.00,,2013-06-19 07:33:00,
2013-06-19 03:43:00,54.0,47.0,30.06,ENE,72,0.0,0.0,77,0.00,,,0.00,,2013-06-19 07:43:00,
2013-06-19 03:53:00,54.0,47.0,30.06,ENE,72,0.0,0.0,78,0.00,,,0.00,,2013-06-19 07:53:00,
2013-06-19 04:02:00,54.0,47.0,30.06,ENE,72,0.0,0.0,78,0.00,,,0.00,,2013-06-19 08:02:00,
2013-06-19 04:11:00,54.0,47.0,30.06,ENE,72,0.0,0.0,78,0.00,,,0.00,,2013-06-19 08:11:00,
2013-06-19 04:22:00,53.0,47.0,30.06,ENE,72,0.0,0.0,80,0.00,,,0.00,,2013-06-19 08:22:00,
2013-06-19 04:33:00,53.0,47.0,30.06,ENE,72,0.0,0.0,80,0.00,,,0.00,,2013-06-19 08:33:00,
2013-06-19 04:43:00,53.0,48.0,30.06,ENE,72,0.0,0.0,82,0.00,,,0.00,,2013-06-19 08:43:00,
2013-06-19 04:53:00,53.0,48.0,30.06,ENE,72,0.0,0.0,82,0.00,,,0.00,,2013-06-19 08:53:00,
2013-06-19 05:02:00,53.0,47.0,30.07,ENE,71,0.0,1.0,81,0.00,,,0.00,,2013-06-19 09:02:00,
2013-06-19 05:11:00,53.0,47.0,30.07,ENE,71,0.0,0.0,80,0.00,,,0.00,,2013-06-19 09:11:00,
2013-06-19 05:22:00,53.0,47.0,30.07,ENE,71,0.0,0.0,80,0.00,,,0.00,,2013-06-19 09:22:00,
2013-06-19 05:34:00,53.0,47.0,30.07,ENE,71,0.0,0.0,81,0.00,,,0.00,,2013-06-19 09:34:00,
2013-06-19 05:43:00,53.0,47.0,30.07,ENE,71,0.0,0.0,81,0.00,,,0.00,,2013-06-19 09:43:00,
2013-06-19 05:53:00,52.0,47.0,30.08,ENE,71,0.0,0.0,84,0.00,,,0.00,,2013-06-19 09:53:00,
2013-06-19 06:02:00,52.0,48.0,30.09,ENE,71,0.0,0.0,85,0.00,,,0.00,,2013-06-19 10:02:00,
2013-06-19 06:12:00,51.0,47.0,30.09,ENE,71,0.0,0.0,85,0.00,,,0.00,,2013-06-19 10:12:00,
2013-06-19 06:22:00,51.0,47.0,30.09,ENE,71,0.0,0.0,86,0.00,,,0.00,,2013-06-19 10:22:00,
2013-06-19 06:33:00,51.0,47.0,30.09,ENE,71,0.0,0.0,86,0.00,,,0.00,,2013-06-19 10:33:00,
2013-06-19 06:42:00,51.0,47.0,30.09,ENE,71,0.0,0.0,85,0.00,,,0.00,,2013-06-19 10:42:00,
2013-06-19 06:52:00,51.0,47.0,30.10,ENE,71,0.0,1.0,85,0.00,,,0.00,,2013-06-19 10:52:00,
2013-06-19 07:02:00,51.0,46.0,30.10,ENE,71,0.0,0.0,84,0.00,,,0.00,,2013-06-19 11:02:00,
2013-06-19 07:11:00,51.0,46.0,30.10,ENE,71,0.0,0.0,84,0.00,,,0.00,,2013-06-19 11:11:00,
2013-06-19 07:22:00,52.0,47.0,30.11,ENE,71,0.0,0.0,84,0.00,,,0.00,,2013-06-19 11:22:00,
2013-06-19 07:33:00,52.0,47.0,30.11,ENE,71,0.0,2.0,84,0.00,,,0.00,,2013-06-19 11:33:00,
2013-06-19 07:42:00,53.0,48.0,30.11,ENE,71,0.0,0.0,83,0.00,,,0.00,,2013-06-19 11:42:00,
2013-06-19 07:54:00,54.0,47.0,30.11,ENE,71,0.0,1.0,78,0.00,,,0.00,,2013-06-19 11:54:00,
2013-06-19 08:02:00,55.0,48.0,30.11,ENE,71,0.0,2.0,76,0.00,,,0.00,,2013-06-19 12:02:00,
2013-06-19 08:12:00,56.0,48.0,30.11,ENE,62,0.0,4.0,75,0.00,,,0.00,,2013-06-19 12:12:00,
2013-06-19 08:22:00,57.0,48.0,30.11,ENE,62,0.0,4.0,73,0.00,,,0.00,,2013-06-19 12:22:00,
2013-06-19 08:34:00,57.0,48.0,30.11,ENE,64,0.0,4.0,72,0.00,,,0.00,,2013-06-19 12:34:00,
2013-06-19 08:44:00,57.0,48.0,30.12,NE,37,0.0,4.0,71,0.00,,,0.00,,2013-06-19 12:44:00,
2013-06-19 08:53:00,58.0,48.0,30.12,SE,145,0.0,4.0,70,0.00,,,0.00,,2013-06-19 12:53:00,
2013-06-19 09:02:00,58.0,47.0,30.12,South,171,1.0,2.0,67,0.00,,,0.00,,2013-06-19 13:02:00,
2013-06-19 09:12:00,59.0,47.0,30.13,NE,55,0.0,4.0,65,0.00,,,0.00,,2013-06-19 13:12:00,
2013-06-19 09:22:00,59.0,47.0,30.13,East,85,0.0,1.0,64,0.00,,,0.00,,2013-06-19 13:22:00,
2013-06-19 09:33:00,60.0,48.0,30.13,SSE,158,0.0,2.0,64,0.00,,,0.00,,2013-06-19 13:33:00,
2013-06-19 09:42:00,61.0,47.0,30.14,ENE,75,0.0,4.0,59,0.00,,,0.00,,2013-06-19 13:42:00,
2013-06-19 09:53:00,62.0,46.0,30.14,East,83,1.0,4.0,56,0.00,,,0.00,,2013-06-19 13:53:00,
2013-06-19 10:02:00,62.0,47.0,30.14,ENE,75,0.0,4.0,57,0.00,,,0.00,,2013-06-19 14:02:00,
2013-06-19 10:12:00,63.0,47.0,30.14,NE,54,0.0,6.0,55,0.00,,,0.00,,2013-06-19 14:12:00,
2013-06-19 10:22:00,63.0,46.0,30.14,South,178,0.0,2.0,54,0.00,,,0.00,,2013-06-19 14:22:00,
2013-06-19 10:33:00,64.0,47.0,30.14,South,178,1.0,2.0,54,0.00,,,0.00,,2013-06-19 14:33:00,
2013-06-19 10:43:00,64.0,47.0,30.14,South,179,0.0,6.0,55,0.00,,,0.00,,2013-06-19 14:43:00,
2013-06-19 10:52:00,65.0,47.0,30.13,ENE,78,0.0,4.0,52,0.00,,,0.00,,2013-06-19 14:52:00,
2013-06-19 11:01:00,66.0,47.0,30.12,NNE,31,2.0,7.0,51,0.00,,,0.00,,2013-06-19 15:01:00,
2013-06-19 11:11:00,66.0,47.0,30.12,NNE,32,3.0,7.0,51,0.00,,,0.00,,2013-06-19 15:11:00,
2013-06-19 11:22:00,66.0,49.0,30.11,South,178,1.0,6.0,55,0.00,,,0.00,,2013-06-19 15:22:00,
2013-06-19 11:33:00,66.0,49.0,30.11,South,178,1.0,6.0,55,0.00,,,0.00,,2013-06-19 15:33:00,
2013-06-19 11:42:00,66.0,49.0,30.11,South,178,1.0,6.0,55,0.00,,,0.00,,2013-06-19 15:42:00,
2013-06-19 11:53:00,68.0,46.0,30.12,South,176,0.0,1.0,46,0.00,,,0.00,,2013-06-19 15:53:00,
2013-06-19 12:01:00,69.0,48.0,30.12,NE,42,1.0,6.0,48,0.00,,,0.00,,2013-06-19 16:01:00,
2013-06-19 12:11:00,69.0,48.0,30.12,ENE,59,0.0,4.0,47,0.00,,,0.00,,2013-06-19 16:11:00,
2013-06-19 12:22:00,69.0,48.0,30.12,South,178,2.0,6.0,47,0.00,,,0.00,,2013-06-19 16:22:00,
2013-06-19 12:34:00,70.0,48.0,30.12,North,360,2.0,6.0,46,0.00,,,0.00,,2013-06-19 16:34:00,
2013-06-19 12:43:00,70.0,47.0,30.12,SSE,157,0.0,4.0,44,0.00,,,0.00,,2013-06-19 16:43:00,
2013-06-19 12:52:00,71.0,48.0,30.12,SSE,162,0.0,2.0,44,0.00,,,0.00,,2013-06-19 16:52:00,
2013-06-19 13:02:00,71.0,46.0,30.12,SSE,164,0.0,2.0,41,0.00,,,0.00,,2013-06-19 17:02:00,
2013-06-19 13:12:00,72.0,49.0,30.12,NNE,32,0.0,7.0,45,0.00,,,0.00,,2013-06-19 17:12:00,
2013-06-19 13:22:00,72.0,48.0,30.11,ENE,62,0.0,6.0,43,0.00,,,0.00,,2013-06-19 17:22:00,
2013-06-19 13:34:00,72.0,46.0,30.11,ENE,71,1.0,4.0,40,0.00,,,0.00,,2013-06-19 17:34:00,
2013-06-19 13:43:00,72.0,44.0,30.11,SE,126,1.0,4.0,37,0.00,,,0.00,,2013-06-19 17:43:00,
2013-06-19 13:53:00,73.0,47.0,30.11,NNE,17,2.0,6.0,40,0.00,,,0.00,,2013-06-19 17:53:00,
2013-06-19 14:02:00,73.0,50.0,30.11,NNE,20,0.0,6.0,44,0.00,,,0.00,,2013-06-19 18:02:00,
2013-06-19 14:11:00,73.0,47.0,30.10,SSE,164,3.0,6.0,40,0.00,,,0.00,,2013-06-19 18:11:00,
2013-06-19 14:24:00,73.0,49.0,30.09,South,184,1.0,4.0,43,0.00,,,0.00,,2013-06-19 18:24:00,
2013-06-19 14:33:00,73.0,50.0,30.09,SSW,202,1.0,6.0,44,0.00,,,0.00,,2013-06-19 18:33:00,
2013-06-19 14:44:00,73.0,44.0,30.08,SSE,150,1.0,6.0,36,0.00,,,0.00,,2013-06-19 18:44:00,
2013-06-19 14:53:00,74.0,44.0,30.09,NE,38,4.0,7.0,34,0.00,,,0.00,,2013-06-19 18:53:00,
2013-06-19 15:01:00,74.0,47.0,30.09,NE,34,1.0,7.0,38,0.00,,,0.00,,2013-06-19 19:01:00,
2013-06-19 15:12:00,74.0,48.0,30.08,NE,38,4.0,6.0,40,0.00,,,0.00,,2013-06-19 19:12:00,
2013-06-19 15:22:00,75.0,45.0,30.08,ENE,72,3.0,6.0,35,0.00,,,0.00,,2013-06-19 19:22:00,
2013-06-19 15:32:00,76.0,49.0,30.08,NNE,31,0.0,6.0,38,0.00,,,0.00,,2013-06-19 19:32:00,
2013-06-19 15:43:00,77.0,46.0,30.09,ENE,76,0.0,6.0,33,0.00,,,0.00,,2013-06-19 19:43:00,
2013-06-19 15:52:00,77.0,49.0,30.08,SSE,150,1.0,4.0,38,0.00,,,0.00,,2013-06-19 19:52:00,
2013-06-19 16:02:00,76.0,50.0,30.08,SSE,167,0.0,6.0,40,0.00,,,0.00,,2013-06-19 20:02:00,
2013-06-19 16:11:00,75.0,44.0,30.08,WNW,288,2.0,6.0,33,0.00,,,0.00,,2013-06-19 20:11:00,
2013-06-19 16:22:00,76.0,46.0,30.08,WNW,288,0.0,4.0,34,0.00,,,0.00,,2013-06-19 20:22:00,
2013-06-19 16:33:00,77.0,48.0,30.08,WNW,288,0.0,4.0,36,0.00,,,0.00,,2013-06-19 20:33:00,
2013-06-19 16:42:00,77.0,46.0,30.07,SW,217,1.0,6.0,33,0.00,,,0.00,,2013-06-19 20:42:00,
2013-06-19 16:52:00,77.0,44.0,30.06,NE,54,1.0,6.0,31,0.00,,,0.00,,2013-06-19 20:52:00,
2013-06-19 17:02:00,77.0,48.0,30.06,West,280,1.0,6.0,36,0.00,,,0.00,,2013-06-19 21:02:00,
2013-06-19 17:11:00,77.0,49.0,30.06,West,277,0.0,6.0,38,0.00,,,0.00,,2013-06-19 21:11:00,
2013-06-19 17:22:00,76.0,46.0,30.06,South,191,1.0,6.0,35,0.00,,,0.00,,2013-06-19 21:22:00,
2013-06-19 17:33:00,76.0,49.0,30.06,SSW,205,0.0,4.0,39,0.00,,,0.00,,2013-06-19 21:33:00,
2013-06-19 17:44:00,77.0,46.0,30.06,NNE,30,1.0,4.0,33,0.00,,,0.00,,2013-06-19 21:44:00,
2013-06-19 17:52:00,77.0,46.0,30.05,NE,41,0.0,4.0,34,0.00,,,0.00,,2013-06-19 21:52:00,
2013-06-19 18:02:00,77.0,45.0,30.05,South,179,1.0,4.0,32,0.00,,,0.00,,2013-06-19 22:02:00,
2013-06-19 18:11:00,77.0,46.0,30.05,NW,308,0.0,4.0,34,0.00,,,0.00,,2013-06-19 22:11:00,
2013-06-19 18:22:00,76.0,48.0,30.05,SSW,193,0.0,6.0,37,0.00,,,0.00,,2013-06-19 22:22:00,
2013-06-19 18:34:00,76.0,46.0,30.05,SSW,193,0.0,4.0,35,0.00,,,0.00,,2013-06-19 22:34:00,
2013-06-19 18:43:00,77.0,44.0,30.05,SSW,193,0.0,1.0,31,0.00,,,0.00,,2013-06-19 22:43:00,
2013-06-19 18:53:00,77.0,46.0,30.05,NNE,27,1.0,2.0,34,0.00,,,0.00,,2013-06-19 22:53:00,
2013-06-19 19:02:00,77.0,44.0,30.05,NNE,27,0.0,4.0,31,0.00,,,0.00,,2013-06-19 23:02:00,
2013-06-19 19:12:00,77.0,44.0,30.05,NE,42,0.0,2.0,31,0.00,,,0.00,,2013-06-19 23:12:00,
2013-06-19 19:23:00,75.0,45.0,30.05,East,97,1.0,2.0,34,0.00,,,0.00,,2013-06-19 23:23:00,
2013-06-19 19:33:00,75.0,49.0,30.05,SSE,155,0.0,4.0,40,0.00,,,0.00,,2013-06-19 23:33:00,
2013-06-19 19:43:00,76.0,49.0,30.05,NNW,330,2.0,8.0,38,0.00,,,0.00,,2013-06-19 23:43:00,
2013-06-19 19:52:00,76.0,49.0,30.06,North,360,1.0,8.0,38,0.00,,,0.00,,2013-06-19 23:52:00,
2013-06-19 20:01:00,74.0,49.0,30.06,NW,320,0.0,6.0,42,0.00,,,0.00,,2013-06-20 00:01:00,
2013-06-19 20:12:00,74.0,49.0,30.06,NNW,335,1.0,6.0,42,0.00,,,0.00,,2013-06-20 00:12:00,
2013-06-19 20:22:00,73.0,49.0,30.07,North,354,0.0,6.0,43,0.00,,,0.00,,2013-06-20 00:22:00,
2013-06-19 20:33:00,72.0,49.0,30.08,NNE,21,0.0,6.0,44,0.00,,,0.00,,2013-06-20 00:33:00,
2013-06-19 20:44:00,71.0,48.0,30.08,NNW,328,0.0,7.0,44,0.00,,,0.00,,2013-06-20 00:44:00,
2013-06-19 20:52:00,71.0,48.0,30.08,NNW,328,0.0,2.0,44,0.00,,,0.00,,2013-06-20 00:52:00,
2013-06-19 21:02:00,70.0,48.0,30.09,NNW,329,0.0,2.0,45,0.00,,,0.00,,2013-06-20 01:02:00,
2013-06-19 21:11:00,69.0,47.0,30.09,NNW,329,0.0,1.0,46,0.00,,,0.00,,2013-06-20 01:11:00,
2013-06-19 21:22:00,68.0,49.0,30.09,NNW,329,0.0,0.0,51,0.00,,,0.00,,2013-06-20 01:22:00,
2013-06-19 21:33:00,67.0,50.0,30.09,NNW,329,0.0,0.0,55,0.00,,,0.00,,2013-06-20 01:33:00,
2013-06-19 21:44:00,65.0,51.0,30.08,NNW,329,0.0,0.0,61,0.00,,,0.00,,2013-06-20 01:44:00,
2013-06-19 21:52:00,64.0,51.0,30.09,NNW,329,0.0,0.0,63,0.00,,,0.00,,2013-06-20 01:52:00,
2013-06-19 22:02:00,63.0,51.0,30.09,NNW,329,0.0,0.0,64,0.00,,,0.00,,2013-06-20 02:02:00,
2013-06-19 22:11:00,62.0,51.0,30.08,NNW,329,0.0,0.0,66,0.00,,,0.00,,2013-06-20 02:11:00,
2013-06-19 22:24:00,62.0,51.0,30.09,NNW,329,0.0,0.0,68,0.00,,,0.00,,2013-06-20 02:24:00,
2013-06-19 22:34:00,61.0,51.0,30.09,NNW,329,0.0,0.0,70,0.00,,,0.00,,2013-06-20 02:34:00,
2013-06-19 22:43:00,60.0,51.0,30.09,NNW,329,0.0,0.0,72,0.00,,,0.00,,2013-06-20 02:43:00,
2013-06-19 22:52:00,59.0,50.0,30.09,NNW,329,0.0,0.0,73,0.00,,,0.00,,2013-06-20 02:52:00,
2013-06-19 23:02:00,59.0,51.0,30.10,NNW,329,0.0,0.0,76,0.00,,,0.00,,2013-06-20 03:02:00,
2013-06-19 23:11:00,58.0,50.0,30.10,NNW,329,0.0,0.0,76,0.00,,,0.00,,2013-06-20 03:11:00,
2013-06-19 23:22:00,58.0,50.0,30.10,NNW,329,0.0,0.0,76,0.00,,,0.00,,2013-06-20 03:22:00,
2013-06-19 23:33:00,57.0,50.0,30.09,NNW,329,0.0,0.0,78,0.00,,,0.00,,2013-06-20 03:33:00,
2013-06-19 23:43:00,57.0,50.0,30.09,NNW,329,0.0,0.0,78,0.00,,,0.00,,2013-06-20 03:43:00,
2013-06-19 23:53:00,57.0,51.0,30.09,NNW,329,0.0,0.0,79,0.00,,,0.00,,2013-06-20 03:53:00,